sensor_id;sensor_type;location;lat;lon;timestamp;pressure;altitude;pressure_sealevel;temperature;humidity
60170;BME280;46042;49.444;6.862;2022-09-23T00:01:07;98887.66;;;6.11;88.60
60170;BME280;46042;49.444;6.862;2022-09-23T00:03:37;98889.34;;;6.12;88.78
60170;BME280;46042;49.444;6.862;2022-09-23T00:06:06;98893.72;;;6.11;89.33
60170;BME280;46042;49.444;6.862;2022-09-23T00:08:33;98887.72;;;6.09;89.90
60170;BME280;46042;49.444;6.862;2022-09-23T00:11:16;98890.31;;;6.09;89.45
60170;BME280;46042;49.444;6.862;2022-09-23T00:13:46;98885.22;;;6.06;89.08
60170;BME280;46042;49.444;6.862;2022-09-23T00:16:17;98892.16;;;6.07;89.07
60170;BME280;46042;49.444;6.862;2022-09-23T00:18:44;98881.84;;;6.04;88.79
60170;BME280;46042;49.444;6.862;2022-09-23T00:21:12;98888.91;;;6.02;88.81
60170;BME280;46042;49.444;6.862;2022-09-23T00:23:40;98889.84;;;6.00;89.66
60170;BME280;46042;49.444;6.862;2022-09-23T00:26:11;98887.28;;;5.98;89.53
60170;BME280;46042;49.444;6.862;2022-09-23T00:28:38;98890.19;;;5.92;89.68
60170;BME280;46042;49.444;6.862;2022-09-23T00:31:10;98884.13;;;5.91;89.36
60170;BME280;46042;49.444;6.862;2022-09-23T00:33:38;98881.56;;;5.90;89.83
60170;BME280;46042;49.444;6.862;2022-09-23T00:36:08;98875.41;;;5.91;89.13
60170;BME280;46042;49.444;6.862;2022-09-23T00:38:37;98878.06;;;5.89;89.95
60170;BME280;46042;49.444;6.862;2022-09-23T00:41:04;98868.66;;;5.85;89.81
60170;BME280;46042;49.444;6.862;2022-09-23T00:43:44;98881.81;;;5.83;89.83
60170;BME280;46042;49.444;6.862;2022-09-23T00:46:15;98874.09;;;5.80;89.91
60170;BME280;46042;49.444;6.862;2022-09-23T00:48:44;98870.69;;;5.78;89.77
60170;BME280;46042;49.444;6.862;2022-09-23T00:51:15;98862.84;;;5.78;89.86
60170;BME280;46042;49.444;6.862;2022-09-23T00:53:46;98874.22;;;5.77;89.97
60170;BME280;46042;49.444;6.862;2022-09-23T00:56:14;98874.31;;;5.76;89.53
60170;BME280;46042;49.444;6.862;2022-09-23T00:58:43;98863.06;;;5.74;89.60
60170;BME280;46042;49.444;6.862;2022-09-23T01:01:12;98868.41;;;5.70;90.42
60170;BME280;46042;49.444;6.862;2022-09-23T01:03:43;98858.88;;;5.69;89.93
60170;BME280;46042;49.444;6.862;2022-09-23T01:06:11;98854.63;;;5.67;90.00
60170;BME280;46042;49.444;6.862;2022-09-23T01:08:40;98855.59;;;5.64;89.77
60170;BME280;46042;49.444;6.862;2022-09-23T01:11:33;98850.50;;;5.61;89.38
60170;BME280;46042;49.444;6.862;2022-09-23T01:25:38;98846.56;;;5.51;89.65
60170;BME280;46042;49.444;6.862;2022-09-23T01:31:09;98842.53;;;5.44;90.97
60170;BME280;46042;49.444;6.862;2022-09-23T01:33:57;98838.22;;;5.43;90.31
60170;BME280;46042;49.444;6.862;2022-09-23T01:39:36;98833.22;;;5.36;89.89
60170;BME280;46042;49.444;6.862;2022-09-23T01:42:13;98830.75;;;5.33;91.00
60170;BME280;46042;49.444;6.862;2022-09-23T01:44:47;98831.84;;;5.27;91.96
60170;BME280;46042;49.444;6.862;2022-09-23T01:50:32;98833.84;;;5.21;91.79
60170;BME280;46042;49.444;6.862;2022-09-23T01:53:46;98827.94;;;5.17;92.19
60170;BME280;46042;49.444;6.862;2022-09-23T01:59:16;98819.63;;;5.07;93.09
60170;BME280;46042;49.444;6.862;2022-09-23T02:01:49;98819.69;;;5.06;92.44
60170;BME280;46042;49.444;6.862;2022-09-23T02:04:41;98830.13;;;5.06;91.60
60170;BME280;46042;49.444;6.862;2022-09-23T02:07:25;98829.34;;;5.04;92.15
60170;BME280;46042;49.444;6.862;2022-09-23T02:10:15;98835.47;;;5.03;92.14
60170;BME280;46042;49.444;6.862;2022-09-23T02:12:46;98831.28;;;4.98;92.57
60170;BME280;46042;49.444;6.862;2022-09-23T02:15:20;98834.06;;;4.94;93.20
60170;BME280;46042;49.444;6.862;2022-09-23T02:17:50;98824.47;;;4.94;91.95
60170;BME280;46042;49.444;6.862;2022-09-23T02:20:33;98830.91;;;4.86;93.23
60170;BME280;46042;49.444;6.862;2022-09-23T02:23:11;98822.97;;;4.89;92.41
60170;BME280;46042;49.444;6.862;2022-09-23T02:29:29;98833.47;;;4.87;93.35
60170;BME280;46042;49.444;6.862;2022-09-23T02:31:56;98831.69;;;4.88;92.02
60170;BME280;46042;49.444;6.862;2022-09-23T02:45:22;98838.13;;;4.79;92.37
60170;BME280;46042;49.444;6.862;2022-09-23T02:47:52;98829.59;;;4.75;92.53
60170;BME280;46042;49.444;6.862;2022-09-23T02:50:21;98820.97;;;4.73;92.20
60170;BME280;46042;49.444;6.862;2022-09-23T02:52:48;98824.53;;;4.70;93.00
60170;BME280;46042;49.444;6.862;2022-09-23T02:55:16;98815.97;;;4.67;93.56
60170;BME280;46042;49.444;6.862;2022-09-23T02:57:44;98822.06;;;4.67;92.92
60170;BME280;46042;49.444;6.862;2022-09-23T03:00:12;98811.63;;;4.67;92.57
60170;BME280;46042;49.444;6.862;2022-09-23T03:02:43;98813.31;;;4.68;92.54
60170;BME280;46042;49.444;6.862;2022-09-23T03:05:27;98816.88;;;4.66;91.94
60170;BME280;46042;49.444;6.862;2022-09-23T03:08:50;98803.84;;;4.66;92.28
60170;BME280;46042;49.444;6.862;2022-09-23T03:11:07;98808.25;;;4.64;92.12
60170;BME280;46042;49.444;6.862;2022-09-23T03:16:30;98808.69;;;4.53;91.96
60170;BME280;46042;49.444;6.862;2022-09-23T03:19:16;98801.66;;;4.55;91.77
60170;BME280;46042;49.444;6.862;2022-09-23T03:21:52;98804.25;;;4.55;92.15
60170;BME280;46042;49.444;6.862;2022-09-23T03:24:22;98794.84;;;4.51;91.94
60170;BME280;46042;49.444;6.862;2022-09-23T03:26:51;98809.59;;;4.52;91.84
60170;BME280;46042;49.444;6.862;2022-09-23T03:29:20;98807.03;;;4.50;92.11
60170;BME280;46042;49.444;6.862;2022-09-23T03:31:48;98802.03;;;4.46;93.15
60170;BME280;46042;49.444;6.862;2022-09-23T03:34:28;98805.47;;;4.46;92.65
60170;BME280;46042;49.444;6.862;2022-09-23T03:37:00;98810.78;;;4.43;93.11
60170;BME280;46042;49.444;6.862;2022-09-23T03:39:36;98800.50;;;4.40;92.52
60170;BME280;46042;49.444;6.862;2022-09-23T03:42:13;98798.97;;;4.34;93.29
60170;BME280;46042;49.444;6.862;2022-09-23T03:44:44;98799.06;;;4.31;93.34
60170;BME280;46042;49.444;6.862;2022-09-23T03:47:12;98793.91;;;4.30;93.38
60170;BME280;46042;49.444;6.862;2022-09-23T03:49:41;98802.69;;;4.27;93.02
60170;BME280;46042;49.444;6.862;2022-09-23T03:52:09;98793.38;;;4.21;94.63
60170;BME280;46042;49.444;6.862;2022-09-23T03:54:36;98796.88;;;4.20;93.95
60170;BME280;46042;49.444;6.862;2022-09-23T03:57:03;98797.72;;;4.21;94.33
60170;BME280;46042;49.444;6.862;2022-09-23T03:59:29;98789.09;;;4.19;93.97
60170;BME280;46042;49.444;6.862;2022-09-23T04:01:56;98793.44;;;4.18;94.47
60170;BME280;46042;49.444;6.862;2022-09-23T04:04:25;98790.97;;;4.15;94.45
60170;BME280;46042;49.444;6.862;2022-09-23T04:06:54;98789.22;;;4.16;93.96
60170;BME280;46042;49.444;6.862;2022-09-23T04:09:21;98787.53;;;4.15;94.25
60170;BME280;46042;49.444;6.862;2022-09-23T04:11:51;98790.97;;;4.15;93.69
60170;BME280;46042;49.444;6.862;2022-09-23T04:14:20;98794.47;;;4.14;94.29
60170;BME280;46042;49.444;6.862;2022-09-23T04:16:47;98786.72;;;4.12;93.69
60170;BME280;46042;49.444;6.862;2022-09-23T04:19:15;98790.16;;;4.13;93.17
60170;BME280;46042;49.444;6.862;2022-09-23T04:21:43;98777.22;;;4.11;93.85
60170;BME280;46042;49.444;6.862;2022-09-23T04:24:10;98782.44;;;4.11;93.95
60170;BME280;46042;49.444;6.862;2022-09-23T04:26:37;98789.25;;;4.14;93.76
60170;BME280;46042;49.444;6.862;2022-09-23T04:29:04;98787.56;;;4.13;94.02
60170;BME280;46042;49.444;6.862;2022-09-23T04:31:32;98787.72;;;4.08;93.12
60170;BME280;46042;49.444;6.862;2022-09-23T04:33:59;98790.28;;;4.10;93.69
60170;BME280;46042;49.444;6.862;2022-09-23T04:36:26;98782.63;;;4.05;93.56
60170;BME280;46042;49.444;6.862;2022-09-23T04:38:54;98786.09;;;4.06;93.94
60170;BME280;46042;49.444;6.862;2022-09-23T04:41:21;98790.47;;;4.05;93.64
60170;BME280;46042;49.444;6.862;2022-09-23T04:43:48;98788.84;;;4.03;94.03
60170;BME280;46042;49.444;6.862;2022-09-23T04:46:15;98793.31;;;3.99;93.89
60170;BME280;46042;49.444;6.862;2022-09-23T04:48:42;98793.31;;;3.99;93.75
60170;BME280;46042;49.444;6.862;2022-09-23T04:51:15;98793.34;;;3.97;93.93
60170;BME280;46042;49.444;6.862;2022-09-23T04:53:44;98793.47;;;3.94;93.67
60170;BME280;46042;49.444;6.862;2022-09-23T04:56:23;98789.19;;;3.92;94.29
60170;BME280;46042;49.444;6.862;2022-09-23T04:58:50;98789.28;;;3.90;94.49
60170;BME280;46042;49.444;6.862;2022-09-23T05:01:21;98791.09;;;3.88;93.96
60170;BME280;46042;49.444;6.862;2022-09-23T05:03:54;98792.81;;;3.88;94.20
60170;BME280;46042;49.444;6.862;2022-09-23T05:06:21;98796.31;;;3.88;94.45
60170;BME280;46042;49.444;6.862;2022-09-23T05:08:53;98792.00;;;3.87;94.66
60170;BME280;46042;49.444;6.862;2022-09-23T05:11:20;98786.81;;;3.86;94.87
60170;BME280;46042;49.444;6.862;2022-09-23T05:13:49;98785.13;;;3.84;94.91
60170;BME280;46042;49.444;6.862;2022-09-23T05:16:17;98785.97;;;3.85;94.85
60170;BME280;46042;49.444;6.862;2022-09-23T05:18:45;98799.91;;;3.84;94.78
60170;BME280;46042;49.444;6.862;2022-09-23T05:21:15;98799.84;;;3.86;94.41
60170;BME280;46042;49.444;6.862;2022-09-23T05:23:46;98788.56;;;3.85;94.57
60170;BME280;46042;49.444;6.862;2022-09-23T05:26:14;98784.38;;;3.81;94.54
60170;BME280;46042;49.444;6.862;2022-09-23T05:28:41;98785.25;;;3.81;94.89
60170;BME280;46042;49.444;6.862;2022-09-23T05:31:16;98786.97;;;3.81;95.05
60170;BME280;46042;49.444;6.862;2022-09-23T05:33:48;98786.06;;;3.82;94.89
60170;BME280;46042;49.444;6.862;2022-09-23T05:36:17;98788.69;;;3.82;95.22
60170;BME280;46042;49.444;6.862;2022-09-23T05:38:46;98791.38;;;3.80;94.84
60170;BME280;46042;49.444;6.862;2022-09-23T05:41:15;98781.06;;;3.77;94.88
60170;BME280;46042;49.444;6.862;2022-09-23T05:43:42;98783.53;;;3.80;94.69
60170;BME280;46042;49.444;6.862;2022-09-23T05:46:14;98796.69;;;3.77;95.02
60170;BME280;46042;49.444;6.862;2022-09-23T05:48:42;98790.56;;;3.78;95.00
60170;BME280;46042;49.444;6.862;2022-09-23T05:51:22;98791.41;;;3.79;95.01
60170;BME280;46042;49.444;6.862;2022-09-23T05:53:56;98789.66;;;3.79;94.98
60170;BME280;46042;49.444;6.862;2022-09-23T05:56:25;98787.88;;;3.80;95.33
60170;BME280;46042;49.444;6.862;2022-09-23T05:58:55;98781.72;;;3.82;95.27
60170;BME280;46042;49.444;6.862;2022-09-23T06:01:24;98788.53;;;3.87;96.01
60170;BME280;46042;49.444;6.862;2022-09-23T06:03:52;98794.47;;;3.90;95.65
60170;BME280;46042;49.444;6.862;2022-09-23T06:06:29;98792.63;;;3.94;96.00
60170;BME280;46042;49.444;6.862;2022-09-23T06:08:56;98793.47;;;3.94;95.37
60170;BME280;46042;49.444;6.862;2022-09-23T06:11:25;98795.91;;;3.99;95.86
60170;BME280;46042;49.444;6.862;2022-09-23T06:13:56;98792.22;;;4.05;96.46
60170;BME280;46042;49.444;6.862;2022-09-23T06:16:28;98792.91;;;4.10;96.40
60170;BME280;46042;49.444;6.862;2022-09-23T06:18:55;98800.47;;;4.16;96.58
60170;BME280;46042;49.444;6.862;2022-09-23T06:21:21;98798.78;;;4.15;96.05
60170;BME280;46042;49.444;6.862;2022-09-23T06:23:48;98811.66;;;4.20;95.94
60170;BME280;46042;49.444;6.862;2022-09-23T06:26:20;98806.28;;;4.24;96.25
60170;BME280;46042;49.444;6.862;2022-09-23T06:28:47;98808.66;;;4.31;95.65
60170;BME280;46042;49.444;6.862;2022-09-23T06:31:16;98804.22;;;4.33;96.10
60170;BME280;46042;49.444;6.862;2022-09-23T06:33:44;98801.44;;;4.37;96.19
60170;BME280;46042;49.444;6.862;2022-09-23T06:36:12;98801.41;;;4.39;95.73
60170;BME280;46042;49.444;6.862;2022-09-23T06:39:00;98807.31;;;4.43;95.79
60170;BME280;46042;49.444;6.862;2022-09-23T06:41:27;98814.16;;;4.47;95.97
60170;BME280;46042;49.444;6.862;2022-09-23T06:43:54;98814.03;;;4.50;95.93
60170;BME280;46042;49.444;6.862;2022-09-23T06:46:21;98810.38;;;4.54;96.64
60170;BME280;46042;49.444;6.862;2022-09-23T06:48:47;98808.38;;;4.61;97.10
60170;BME280;46042;49.444;6.862;2022-09-23T06:51:15;98813.00;;;4.76;97.81
60170;BME280;46042;49.444;6.862;2022-09-23T06:53:46;98806.19;;;4.94;98.42
60170;BME280;46042;49.444;6.862;2022-09-23T06:56:14;98817.53;;;5.16;97.82
60170;BME280;46042;49.444;6.862;2022-09-23T06:58:42;98822.13;;;5.52;99.13
60170;BME280;46042;49.444;6.862;2022-09-23T07:01:14;98825.09;;;6.06;98.10
60170;BME280;46042;49.444;6.862;2022-09-23T07:03:42;98811.03;;;6.47;96.12
60170;BME280;46042;49.444;6.862;2022-09-23T07:06:09;98820.53;;;6.87;95.39
60170;BME280;46042;49.444;6.862;2022-09-23T07:08:36;98823.00;;;7.26;92.46
60170;BME280;46042;49.444;6.862;2022-09-23T07:11:04;98819.22;;;7.85;90.34
60170;BME280;46042;49.444;6.862;2022-09-23T07:13:32;98815.91;;;8.65;89.54
60170;BME280;46042;49.444;6.862;2022-09-23T07:15:59;98813.63;;;9.21;86.00
60170;BME280;46042;49.444;6.862;2022-09-23T07:18:31;98811.13;;;9.79;82.78
60170;BME280;46042;49.444;6.862;2022-09-23T07:21:11;98811.59;;;10.30;78.68
60170;BME280;46042;49.444;6.862;2022-09-23T07:23:42;98804.63;;;10.72;75.73
60170;BME280;46042;49.444;6.862;2022-09-23T07:26:13;98799.53;;;11.24;75.31
60170;BME280;46042;49.444;6.862;2022-09-23T07:28:40;98801.28;;;11.64;73.50
60170;BME280;46042;49.444;6.862;2022-09-23T07:31:11;98812.06;;;12.13;71.10
60170;BME280;46042;49.444;6.862;2022-09-23T07:33:40;98805.06;;;12.50;69.23
60170;BME280;46042;49.444;6.862;2022-09-23T07:36:12;98804.81;;;12.91;69.03
60170;BME280;46042;49.444;6.862;2022-09-23T07:38:39;98805.88;;;13.13;68.70
60170;BME280;46042;49.444;6.862;2022-09-23T07:41:16;98803.66;;;13.31;64.45
60170;BME280;46042;49.444;6.862;2022-09-23T07:43:44;98809.56;;;13.59;65.24
60170;BME280;46042;49.444;6.862;2022-09-23T07:46:15;98808.22;;;13.53;62.26
60170;BME280;46042;49.444;6.862;2022-09-23T07:48:43;98812.69;;;13.53;62.91
60170;BME280;46042;49.444;6.862;2022-09-23T07:51:19;98808.09;;;14.13;62.66
60170;BME280;46042;49.444;6.862;2022-09-23T07:53:47;98807.47;;;14.55;60.12
60170;BME280;46042;49.444;6.862;2022-09-23T07:56:15;98806.13;;;14.72;60.42
60170;BME280;46042;49.444;6.862;2022-09-23T07:58:41;98801.63;;;14.84;58.94
60170;BME280;46042;49.444;6.862;2022-09-23T08:01:09;98799.84;;;14.73;57.51
60170;BME280;46042;49.444;6.862;2022-09-23T08:03:38;98806.47;;;14.79;57.37
60170;BME280;46042;49.444;6.862;2022-09-23T08:06:10;98799.84;;;14.85;56.95
60170;BME280;46042;49.444;6.862;2022-09-23T08:08:39;98798.19;;;15.05;56.83
60170;BME280;46042;49.444;6.862;2022-09-23T08:11:11;98800.59;;;15.62;62.24
60170;BME280;46042;49.444;6.862;2022-09-23T08:13:39;98794.69;;;16.01;59.26
60170;BME280;46042;49.444;6.862;2022-09-23T08:16:06;98798.97;;;16.74;57.68
60170;BME280;46042;49.444;6.862;2022-09-23T08:18:33;98800.47;;;17.27;54.99
60170;BME280;46042;49.444;6.862;2022-09-23T08:21:00;98795.38;;;16.95;55.00
60170;BME280;46042;49.444;6.862;2022-09-23T08:23:27;98801.13;;;16.29;53.59
60170;BME280;46042;49.444;6.862;2022-09-23T08:26:00;98800.59;;;16.14;54.87
60170;BME280;46042;49.444;6.862;2022-09-23T08:28:27;98806.34;;;15.46;54.94
60170;BME280;46042;49.444;6.862;2022-09-23T08:30:54;98794.19;;;15.11;56.90
60170;BME280;46042;49.444;6.862;2022-09-23T08:33:22;98804.53;;;15.89;55.63
60170;BME280;46042;49.444;6.862;2022-09-23T08:35:50;98803.31;;;16.24;57.67
60170;BME280;46042;49.444;6.862;2022-09-23T08:38:17;98802.25;;;16.37;55.43
60170;BME280;46042;49.444;6.862;2022-09-23T08:40:47;98793.59;;;17.25;55.92
60170;BME280;46042;49.444;6.862;2022-09-23T08:43:25;98789.63;;;16.80;52.45
60170;BME280;46042;49.444;6.862;2022-09-23T08:45:53;98795.84;;;17.10;54.52
60170;BME280;46042;49.444;6.862;2022-09-23T08:48:27;98792.97;;;16.31;53.46
60170;BME280;46042;49.444;6.862;2022-09-23T08:51:01;98790.09;;;17.54;58.85
60170;BME280;46042;49.444;6.862;2022-09-23T08:53:35;98802.44;;;17.25;52.25
60170;BME280;46042;49.444;6.862;2022-09-23T08:56:05;98800.72;;;17.54;52.14
60170;BME280;46042;49.444;6.862;2022-09-23T09:01:25;98798.63;;;17.57;51.05
60170;BME280;46042;49.444;6.862;2022-09-23T09:04:00;98802.41;;;17.65;51.23
60170;BME280;46042;49.444;6.862;2022-09-23T09:06:35;98799.53;;;18.05;52.27
60170;BME280;46042;49.444;6.862;2022-09-23T09:09:29;98791.88;;;17.73;54.61
60170;BME280;46042;49.444;6.862;2022-09-23T09:12:02;98794.66;;;18.29;49.95
60170;BME280;46042;49.444;6.862;2022-09-23T09:17:43;98781.13;;;20.03;51.96
60170;BME280;46042;49.444;6.862;2022-09-23T09:22:56;98775.91;;;19.31;48.02
60170;BME280;46042;49.444;6.862;2022-09-23T09:25:35;98779.69;;;18.74;47.69
60170;BME280;46042;49.444;6.862;2022-09-23T09:30:47;98780.91;;;18.33;48.63
60170;BME280;46042;49.444;6.862;2022-09-23T09:33:16;98768.19;;;19.46;54.63
60170;BME280;46042;49.444;6.862;2022-09-23T09:36:00;98776.19;;;18.91;46.26
60170;BME280;46042;49.444;6.862;2022-09-23T09:38:35;98765.97;;;19.23;48.78
60170;BME280;46042;49.444;6.862;2022-09-23T09:41:16;98768.28;;;19.18;49.29
60170;BME280;46042;49.444;6.862;2022-09-23T09:43:45;98769.69;;;18.30;47.85
60170;BME280;46042;49.444;6.862;2022-09-23T09:48:57;98752.63;;;18.87;52.89
60170;BME280;46042;49.444;6.862;2022-09-23T09:51:27;98757.06;;;19.14;47.80
60170;BME280;46042;49.444;6.862;2022-09-23T09:54:17;98755.78;;;19.00;49.17
60170;BME280;46042;49.444;6.862;2022-09-23T09:56:47;98762.47;;;18.40;48.10
60170;BME280;46042;49.444;6.862;2022-09-23T09:59:18;98758.72;;;19.33;52.41
60170;BME280;46042;49.444;6.862;2022-09-23T10:01:48;98755.25;;;19.15;48.58
60170;BME280;46042;49.444;6.862;2022-09-23T10:04:22;98761.81;;;19.02;48.10
60170;BME280;46042;49.444;6.862;2022-09-23T10:07:16;98751.84;;;19.49;49.01
60170;BME280;46042;49.444;6.862;2022-09-23T10:09:50;98762.69;;;19.74;50.06
60170;BME280;46042;49.444;6.862;2022-09-23T10:12:19;98752.53;;;20.47;48.15
60170;BME280;46042;49.444;6.862;2022-09-23T10:14:48;98754.38;;;21.23;50.94
60170;BME280;46042;49.444;6.862;2022-09-23T10:17:37;98754.38;;;20.46;44.80
60170;BME280;46042;49.444;6.862;2022-09-23T10:20:09;98747.66;;;20.42;45.34
60170;BME280;46042;49.444;6.862;2022-09-23T10:22:40;98745.91;;;20.25;43.91
60170;BME280;46042;49.444;6.862;2022-09-23T10:25:20;98749.88;;;20.55;45.54
60170;BME280;46042;49.444;6.862;2022-09-23T10:27:50;98741.47;;;20.42;43.76
60170;BME280;46042;49.444;6.862;2022-09-23T10:30:23;98749.09;;;20.20;49.02
60170;BME280;46042;49.444;6.862;2022-09-23T10:32:51;98739.44;;;20.36;47.01
60170;BME280;46042;49.444;6.862;2022-09-23T10:35:22;98739.91;;;19.35;47.86
60170;BME280;46042;49.444;6.862;2022-09-23T10:37:54;98747.94;;;19.43;50.03
60170;BME280;46042;49.444;6.862;2022-09-23T10:46:49;98732.94;;;19.95;51.53
60170;BME280;46042;49.444;6.862;2022-09-23T10:56:23;98729.47;;;20.03;44.88
60170;BME280;46042;49.444;6.862;2022-09-23T11:01:25;98719.81;;;20.78;42.75
60170;BME280;46042;49.444;6.862;2022-09-23T11:04:24;98724.34;;;21.52;43.91
60170;BME280;46042;49.444;6.862;2022-09-23T11:07:14;98721.16;;;21.49;45.39
60170;BME280;46042;49.444;6.862;2022-09-23T11:18:41;98709.19;;;21.93;44.63
60170;BME280;46042;49.444;6.862;2022-09-23T11:27:37;98701.56;;;21.56;43.72
60170;BME280;46042;49.444;6.862;2022-09-23T11:35:38;98698.53;;;21.59;39.80
60170;BME280;46042;49.444;6.862;2022-09-23T11:38:11;98696.78;;;22.00;44.37
60170;BME280;46042;49.444;6.862;2022-09-23T11:40:43;98685.94;;;22.56;41.64
60170;BME280;46042;49.444;6.862;2022-09-23T11:43:19;98691.53;;;21.67;38.40
60170;BME280;46042;49.444;6.862;2022-09-23T11:45:55;98689.16;;;22.52;44.85
60170;BME280;46042;49.444;6.862;2022-09-23T11:48:39;98678.09;;;22.15;40.50
60170;BME280;46042;49.444;6.862;2022-09-23T11:53:44;98673.97;;;22.04;41.20
60170;BME280;46042;49.444;6.862;2022-09-23T11:56:29;98666.06;;;22.11;41.19
60170;BME280;46042;49.444;6.862;2022-09-23T11:59:09;98668.50;;;22.99;43.82
60170;BME280;46042;49.444;6.862;2022-09-23T12:01:44;98654.31;;;22.90;39.08
60170;BME280;46042;49.444;6.862;2022-09-23T12:04:27;98656.19;;;22.03;38.26
60170;BME280;46042;49.444;6.862;2022-09-23T12:07:03;98654.13;;;22.92;44.91
60170;BME280;46042;49.444;6.862;2022-09-23T12:09:43;98643.53;;;23.13;40.17
60170;BME280;46042;49.444;6.862;2022-09-23T12:18:40;98643.94;;;23.40;37.10
60170;BME280;46042;49.444;6.862;2022-09-23T12:24:21;98654.91;;;21.26;37.90
60170;BME280;46042;49.444;6.862;2022-09-23T12:26:56;98651.75;;;20.81;39.51
60170;BME280;46042;49.444;6.862;2022-09-23T12:29:28;98643.56;;;20.91;39.31
60170;BME280;46042;49.444;6.862;2022-09-23T12:31:55;98644.28;;;21.66;40.46
60170;BME280;46042;49.444;6.862;2022-09-23T12:34:28;98639.94;;;22.59;42.17
60170;BME280;46042;49.444;6.862;2022-09-23T12:37:03;98638.81;;;22.77;39.09
60170;BME280;46042;49.444;6.862;2022-09-23T12:39:32;98638.84;;;22.45;40.25
60170;BME280;46042;49.444;6.862;2022-09-23T12:42:02;98641.03;;;22.50;39.14
60170;BME280;46042;49.444;6.862;2022-09-23T12:44:42;98638.84;;;22.45;40.60
60170;BME280;46042;49.444;6.862;2022-09-23T12:49:41;98630.69;;;23.00;42.74
60170;BME280;46042;49.444;6.862;2022-09-23T12:54:41;98624.78;;;22.90;34.61
60170;BME280;46042;49.444;6.862;2022-09-23T12:57:13;98624.88;;;22.97;35.45
60170;BME280;46042;49.444;6.862;2022-09-23T13:08:36;98622.97;;;21.72;37.45
60170;BME280;46042;49.444;6.862;2022-09-23T13:11:07;98614.25;;;22.34;38.78
60170;BME280;46042;49.444;6.862;2022-09-23T13:13:42;98625.75;;;21.87;34.54
60170;BME280;46042;49.444;6.862;2022-09-23T13:16:31;98624.09;;;21.86;36.25
60170;BME280;46042;49.444;6.862;2022-09-23T13:19:03;98612.44;;;22.02;40.63
60170;BME280;46042;49.444;6.862;2022-09-23T13:29:26;98603.03;;;21.02;37.37
60170;BME280;46042;49.444;6.862;2022-09-23T13:32:00;98606.38;;;20.79;40.33
60170;BME280;46042;49.444;6.862;2022-09-23T13:34:35;98610.41;;;20.75;41.52
60170;BME280;46042;49.444;6.862;2022-09-23T13:37:40;98611.56;;;20.72;40.91
60170;BME280;46042;49.444;6.862;2022-09-23T13:42:43;98605.53;;;20.37;43.39
60170;BME280;46042;49.444;6.862;2022-09-23T13:45:14;98605.50;;;20.12;44.39
60170;BME280;46042;49.444;6.862;2022-09-23T13:47:42;98603.31;;;20.16;47.54
60170;BME280;46042;49.444;6.862;2022-09-23T13:50:18;98596.97;;;20.09;48.50
60170;BME280;46042;49.444;6.862;2022-09-23T13:52:54;98602.84;;;19.78;44.56
60170;BME280;46042;49.444;6.862;2022-09-23T13:55:35;98590.75;;;19.57;42.47
60170;BME280;46042;49.444;6.862;2022-09-23T13:58:18;98591.88;;;19.46;45.01
60170;BME280;46042;49.444;6.862;2022-09-23T14:00:45;98581.50;;;19.16;43.24
60170;BME280;46042;49.444;6.862;2022-09-23T14:03:27;98588.72;;;19.24;47.40
60170;BME280;46042;49.444;6.862;2022-09-23T14:06:09;98576.56;;;19.22;48.22
60170;BME280;46042;49.444;6.862;2022-09-23T14:11:16;98575.22;;;18.73;42.18
60170;BME280;46042;49.444;6.862;2022-09-23T14:13:45;98577.13;;;18.62;43.46
60170;BME280;46042;49.444;6.862;2022-09-23T14:16:13;98575.34;;;18.71;45.88
60170;BME280;46042;49.444;6.862;2022-09-23T14:18:46;98586.34;;;18.68;46.29
60170;BME280;46042;49.444;6.862;2022-09-23T14:21:35;98577.28;;;18.61;46.62
60170;BME280;46042;49.444;6.862;2022-09-23T14:24:20;98569.97;;;18.45;44.83
60170;BME280;46042;49.444;6.862;2022-09-23T14:26:53;98565.53;;;18.54;47.25
60170;BME280;46042;49.444;6.862;2022-09-23T14:29:32;98566.53;;;18.53;45.61
60170;BME280;46042;49.444;6.862;2022-09-23T14:32:04;98571.75;;;18.54;48.07
60170;BME280;46042;49.444;6.862;2022-09-23T14:34:40;98563.38;;;18.49;47.90
60170;BME280;46042;49.444;6.862;2022-09-23T14:40:20;98546.66;;;18.47;52.05
60170;BME280;46042;49.444;6.862;2022-09-23T14:45:24;98549.03;;;18.32;47.42
60170;BME280;46042;49.444;6.862;2022-09-23T14:48:12;98553.69;;;18.30;50.53
60170;BME280;46042;49.444;6.862;2022-09-23T14:50:48;98552.47;;;18.42;53.48
60170;BME280;46042;49.444;6.862;2022-09-23T14:56:06;98552.00;;;18.47;49.61
60170;BME280;46042;49.444;6.862;2022-09-23T14:58:45;98540.31;;;18.48;48.62
60170;BME280;46042;49.444;6.862;2022-09-23T15:01:31;98543.91;;;18.57;54.54
60170;BME280;46042;49.444;6.862;2022-09-23T15:07:13;98545.59;;;18.58;50.60
60170;BME280;46042;49.444;6.862;2022-09-23T15:09:39;98542.41;;;18.54;50.22
60170;BME280;46042;49.444;6.862;2022-09-23T15:12:12;98546.06;;;18.53;48.90
60170;BME280;46042;49.444;6.862;2022-09-23T15:14:42;98537.06;;;18.54;49.71
60170;BME280;46042;49.444;6.862;2022-09-23T15:17:33;98536.28;;;18.62;53.94
60170;BME280;46042;49.444;6.862;2022-09-23T15:20:07;98541.75;;;18.60;49.92
60170;BME280;46042;49.444;6.862;2022-09-23T15:22:52;98528.19;;;18.54;48.24
60170;BME280;46042;49.444;6.862;2022-09-23T15:25:33;98519.22;;;18.55;51.70
60170;BME280;46042;49.444;6.862;2022-09-23T15:30:35;98529.88;;;18.10;46.94
60170;BME280;46042;49.444;6.862;2022-09-23T15:33:02;98534.38;;;18.00;47.54
60170;BME280;46042;49.444;6.862;2022-09-23T15:35:30;98528.50;;;17.96;48.74
60170;BME280;46042;49.444;6.862;2022-09-23T15:38:01;98528.81;;;17.93;50.36
60170;BME280;46042;49.444;6.862;2022-09-23T15:40:30;98531.56;;;17.83;48.13
60170;BME280;46042;49.444;6.862;2022-09-23T15:43:00;98532.72;;;17.81;49.82
60170;BME280;46042;49.444;6.862;2022-09-23T15:45:34;98524.31;;;17.75;49.26
60170;BME280;46042;49.444;6.862;2022-09-23T15:48:12;98532.63;;;17.72;49.57
60170;BME280;46042;49.444;6.862;2022-09-23T15:50:39;98530.09;;;17.71;52.22
60170;BME280;46042;49.444;6.862;2022-09-23T15:53:14;98536.53;;;17.50;49.10
60170;BME280;46042;49.444;6.862;2022-09-23T15:55:41;98526.09;;;17.39;50.76
60170;BME280;46042;49.444;6.862;2022-09-23T15:58:08;98519.66;;;17.31;50.99